createdAt,value
2023-02-12T00:00:22.666Z,101609.09
2023-02-12T00:03:25.533Z,101606.72
2023-02-12T00:06:28.265Z,101616.63
2023-02-12T00:09:31.043Z,101607.34
2023-02-12T00:12:33.892Z,101601.16
2023-02-12T00:15:40.026Z,101595.59
2023-02-12T00:18:44.005Z,101592.09
2023-02-12T00:21:46.932Z,101602.81
2023-02-12T00:24:49.669Z,101607.13
2023-02-12T00:27:52.333Z,101601.47
2023-02-12T00:30:55.125Z,101583.94
2023-02-12T00:33:59.523Z,101585.81
2023-02-12T00:37:02.317Z,101594.47
2023-02-12T00:40:06.328Z,101585.19
2023-02-12T00:43:09.066Z,101569.66
2023-02-12T00:46:12.013Z,101581.09
2023-02-12T00:49:14.980Z,101583.03
2023-02-12T00:52:17.730Z,101573.75
2023-02-12T00:55:20.586Z,101560.19
2023-02-12T00:58:24.464Z,101558.53
2023-02-12T01:01:27.362Z,101561.13
2023-02-12T01:04:30.232Z,101564.41
2023-02-12T01:07:33.015Z,101560.16
2023-02-12T01:10:35.834Z,101555.75
2023-02-12T01:13:38.705Z,101562.13
2023-02-12T01:16:41.684Z,101560.69
2023-02-12T01:19:44.649Z,101569.25
2023-02-12T01:22:47.837Z,101559.03
2023-02-12T01:25:50.545Z,101562.53
2023-02-12T01:28:56.085Z,101556.78
2023-02-12T01:31:58.998Z,101559.75
2023-02-12T01:35:03.270Z,101564.19
2023-02-12T01:38:06.195Z,101558.53
2023-02-12T01:41:15.578Z,101569.56
2023-02-12T01:44:24.370Z,101559.44
2023-02-12T01:47:27.909Z,101565.53
2023-02-12T01:50:31.794Z,101565.22
2023-02-12T01:53:42.999Z,101562.41
2023-02-12T01:56:45.849Z,101581.59
2023-02-12T01:59:53.328Z,101564.19
2023-02-12T02:03:00.193Z,101569.84
2023-02-12T02:06:12.924Z,101576.88
2023-02-12T02:09:18.849Z,101574.91
2023-02-12T02:12:40.405Z,101569.13
2023-02-12T02:15:47.313Z,101566.06
2023-02-12T02:19:20.921Z,101568.41
2023-02-12T02:22:23.620Z,101584.56
2023-02-12T02:26:04.026Z,101582.00
2023-02-12T02:29:25.907Z,101591.28
2023-02-12T02:32:41.935Z,101583.44
2023-02-12T02:35:44.686Z,101567.06
2023-02-12T02:39:02.729Z,101579.22
2023-02-12T02:42:14.456Z,101586.00
2023-02-12T02:45:25.268Z,101576.00
2023-02-12T02:48:35.496Z,101569.00
2023-02-12T02:51:43.088Z,101573.44
2023-02-12T02:54:53.025Z,101591.38
2023-02-12T02:58:00.858Z,101578.28
2023-02-12T03:01:09.560Z,101598.25
2023-02-12T03:04:38.648Z,101609.16
2023-02-12T03:07:52.815Z,101614.22
2023-02-12T03:11:02.938Z,101613.00
2023-02-12T03:14:20.967Z,101603.19
2023-02-12T03:17:35.210Z,101603.13
2023-02-12T03:20:45.885Z,101611.16
2023-02-12T03:24:06.320Z,101607.53
2023-02-12T03:27:19.833Z,101609.22
2023-02-12T03:30:24.815Z,101614.94
2023-02-12T03:33:50.085Z,101619.28
2023-02-12T03:37:27.461Z,101612.09
2023-02-12T03:41:00.239Z,101631.03
2023-02-12T03:44:18.417Z,101646.78
2023-02-12T03:47:26.666Z,101627.53
2023-02-12T03:50:39.967Z,101646.38
2023-02-12T03:53:44.290Z,101649.66
2023-02-12T03:56:54.060Z,101665.84
2023-02-12T03:59:59.202Z,101654.50
2023-02-12T04:03:02.309Z,101658.22
2023-02-12T04:06:05.801Z,101663.16
2023-02-12T04:09:12.313Z,101659.16
2023-02-12T04:12:48.044Z,101655.66
2023-02-12T04:16:21.887Z,101664.31
2023-02-12T04:19:43.291Z,101666.56
2023-02-12T04:23:00.458Z,101671.81
2023-02-12T04:26:05.852Z,101671.91
2023-02-12T04:29:08.596Z,101680.97
2023-02-12T04:32:18.605Z,101681.78
2023-02-12T04:35:31.562Z,101689.00
2023-02-12T04:39:01.148Z,101685.00
2023-02-12T04:42:04.442Z,101682.78
2023-02-12T04:45:10.970Z,101676.22
2023-02-12T04:48:13.718Z,101680.13
2023-02-12T04:51:16.464Z,101685.66
2023-02-12T04:54:20.816Z,101696.38
2023-02-12T04:57:23.506Z,101686.38
2023-02-12T05:00:26.536Z,101694.72
2023-02-12T05:03:29.255Z,101698.81
2023-02-12T05:06:34.729Z,101700.75
2023-02-12T05:09:37.808Z,101713.53
2023-02-12T05:12:40.800Z,101708.75
2023-02-12T05:15:43.623Z,101717.88
2023-02-12T05:18:47.442Z,101716.72
2023-02-12T05:21:51.588Z,101734.50
2023-02-12T05:24:54.322Z,101736.41
2023-02-12T05:27:57.554Z,101741.00
2023-02-12T05:31:05.789Z,101755.25
2023-02-12T05:34:11.285Z,101755.63
2023-02-12T05:37:14.041Z,101772.41
2023-02-12T05:40:17.170Z,101778.03
2023-02-12T05:43:19.918Z,101782.34
2023-02-12T05:46:22.781Z,101776.84
2023-02-12T05:49:25.841Z,101780.06
2023-02-12T05:52:28.679Z,101786.66
2023-02-12T05:55:31.557Z,101792.25
2023-02-12T05:58:34.347Z,101804.91
2023-02-12T06:01:41.927Z,101815.75
2023-02-12T06:04:46.944Z,101826.91
2023-02-12T06:07:50.994Z,101828.75
2023-02-12T06:10:53.817Z,101835.06
2023-02-12T06:13:56.613Z,101853.44
2023-02-12T06:16:59.457Z,101847.75
2023-02-12T06:20:02.214Z,101851.06
2023-02-12T06:23:04.955Z,101859.00
2023-02-12T06:26:07.820Z,101860.47
2023-02-12T06:29:11.003Z,101876.91
2023-02-12T06:32:15.446Z,101870.09
2023-02-12T06:35:18.247Z,101875.25
2023-02-12T06:38:21.723Z,101882.63
2023-02-12T06:41:24.591Z,101891.56
2023-02-12T06:44:27.393Z,101891.25
2023-02-12T06:47:30.174Z,101891.78
2023-02-12T06:50:33.391Z,101891.22
2023-02-12T06:53:36.505Z,101895.00
2023-02-12T06:56:39.261Z,101907.09
2023-02-12T06:59:42.212Z,101914.66
2023-02-12T07:02:45.032Z,101915.13
2023-02-12T07:05:48.464Z,101927.94
2023-02-12T07:08:51.423Z,101925.19
2023-02-12T07:11:56.539Z,101931.97
2023-02-12T07:14:59.300Z,101926.56
2023-02-12T07:18:01.997Z,101938.38
2023-02-12T07:21:07.111Z,101936.06
2023-02-12T07:24:14.873Z,101933.50
2023-02-12T07:27:18.024Z,101940.69
2023-02-12T07:30:20.758Z,101949.59
2023-02-12T07:33:23.651Z,101949.06
2023-02-12T07:36:29.255Z,101948.69
2023-02-12T07:39:32.035Z,101938.78
2023-02-12T07:42:34.806Z,101944.00
2023-02-12T07:45:41.629Z,101946.00
2023-02-12T07:48:45.963Z,101941.38
2023-02-12T07:51:50.270Z,101937.00
2023-02-12T07:54:53.016Z,101937.44
2023-02-12T07:57:55.786Z,101946.34
2023-02-12T08:00:58.458Z,101941.44
2023-02-12T08:04:13.532Z,101949.13
2023-02-12T08:07:16.331Z,101947.38
2023-02-12T08:10:22.439Z,101953.69
2023-02-12T08:13:25.289Z,101946.91
2023-02-12T08:16:29.976Z,101953.84
2023-02-12T08:19:32.834Z,101959.69
2023-02-12T08:22:35.652Z,101965.09
2023-02-12T08:25:38.456Z,101970.41
2023-02-12T08:28:43.842Z,101967.75
2023-02-12T08:31:49.533Z,101973.94
2023-02-12T08:34:52.328Z,101985.63
2023-02-12T08:37:55.071Z,101995.13
2023-02-12T08:41:01.685Z,101987.28
2023-02-12T08:44:05.540Z,101993.69
2023-02-12T08:47:10.187Z,102001.88
2023-02-12T08:50:13.071Z,102014.16
2023-02-12T08:53:15.912Z,102012.19
2023-02-12T08:56:19.087Z,102013.25
2023-02-12T08:59:21.956Z,102026.50
2023-02-12T09:02:24.955Z,102014.53
2023-02-12T09:05:27.761Z,102016.81
2023-02-12T09:08:31.179Z,102025.06
2023-02-12T09:11:35.816Z,102029.50
2023-02-12T09:14:38.707Z,102037.44
2023-02-12T09:17:43.373Z,102033.03
2023-02-12T09:20:46.152Z,102044.41
2023-02-12T09:23:49.209Z,102036.75
2023-02-12T09:26:51.940Z,102043.47
2023-02-12T09:29:54.673Z,102051.91
2023-02-12T09:32:57.591Z,102050.06
2023-02-12T09:36:08.961Z,102058.66
2023-02-12T09:39:11.689Z,102050.75
2023-02-12T09:42:15.443Z,102051.78
2023-02-12T09:45:21.844Z,102065.63
2023-02-12T09:48:27.333Z,102067.59
2023-02-12T09:51:31.640Z,102063.59
2023-02-12T09:54:44.550Z,102065.41
2023-02-12T09:57:47.588Z,102060.75
2023-02-12T10:00:50.361Z,102069.38
2023-02-12T10:03:53.318Z,102046.28
2023-02-12T10:07:06.344Z,102067.28
2023-02-12T10:10:33.120Z,102069.31
2023-02-12T10:14:23.433Z,102076.94
2023-02-12T10:17:38.174Z,102078.00
2023-02-12T10:21:16.186Z,102070.00
2023-02-12T10:24:48.439Z,102076.44
2023-02-12T10:27:54.915Z,102072.59
2023-02-12T10:31:09.088Z,102067.19
2023-02-12T10:34:22.714Z,102067.44
2023-02-12T10:37:43.833Z,102051.84
2023-02-12T10:40:46.896Z,102058.75
2023-02-12T10:43:49.861Z,102053.59
2023-02-12T10:46:52.967Z,102050.47
2023-02-12T10:50:02.710Z,102050.19
2023-02-12T10:53:06.200Z,102045.81
2023-02-12T10:56:11.994Z,102041.56
2023-02-12T10:59:24.179Z,102047.69
2023-02-12T11:02:34.621Z,102045.16
2023-02-12T11:05:39.951Z,102043.50
2023-02-12T11:08:43.772Z,102053.63
2023-02-12T11:11:48.060Z,102048.75
2023-02-12T11:14:55.488Z,102063.50
2023-02-12T11:18:07.699Z,102059.22
2023-02-12T11:21:12.692Z,102054.50
2023-02-12T11:24:31.577Z,102057.16
2023-02-12T11:27:34.527Z,102066.47
2023-02-12T11:30:53.187Z,102070.53
2023-02-12T11:34:20.358Z,102065.63
2023-02-12T11:37:23.161Z,102057.44
2023-02-12T11:40:31.651Z,102065.34
2023-02-12T11:43:38.564Z,102059.50
2023-02-12T11:46:52.040Z,102051.06
2023-02-12T11:49:56.703Z,102052.91
2023-02-12T11:53:07.015Z,102058.84
2023-02-12T11:56:14.520Z,102039.66
2023-02-12T11:59:29.235Z,102047.13
2023-02-12T12:02:39.308Z,102046.16
2023-02-12T12:05:48.461Z,102038.63
2023-02-12T12:08:54.310Z,102038.13
2023-02-12T12:12:13.813Z,102035.31
2023-02-12T12:15:41.294Z,102034.31
2023-02-12T12:19:11.214Z,102040.19
2023-02-12T12:22:23.150Z,102038.31
2023-02-12T12:25:45.288Z,102040.44
2023-02-12T12:29:06.823Z,102028.41
2023-02-12T12:32:14.492Z,102029.13
2023-02-12T12:35:24.060Z,102033.59
2023-02-12T12:39:01.651Z,102029.25
2023-02-12T12:42:28.274Z,102028.53
2023-02-12T12:46:10.447Z,102036.66
2023-02-12T12:49:32.520Z,102025.56
2023-02-12T12:53:32.456Z,102032.03
2023-02-12T12:56:40.336Z,102028.03
2023-02-12T13:00:09.479Z,102020.94
2023-02-12T13:03:39.845Z,102021.19
2023-02-12T13:07:13.644Z,102019.75
2023-02-12T13:10:48.808Z,102020.38
2023-02-12T13:14:04.124Z,102024.50
2023-02-12T13:17:21.971Z,102030.03
2023-02-12T13:20:51.602Z,102014.13
2023-02-12T13:24:36.196Z,102028.50
2023-02-12T13:27:42.450Z,102019.31
2023-02-12T13:30:50.352Z,102029.34
2023-02-12T13:33:58.470Z,102028.75
2023-02-12T13:37:02.969Z,102027.88
2023-02-12T13:40:14.597Z,102039.19
2023-02-12T13:43:59.426Z,102041.16
2023-02-12T13:47:14.448Z,102037.91
2023-02-12T13:50:45.010Z,102035.22
2023-02-12T13:53:54.876Z,102043.38
2023-02-12T13:57:02.640Z,102043.72
2023-02-12T14:00:09.856Z,102039.00
2023-02-12T14:03:14.624Z,102032.88
2023-02-12T14:06:22.162Z,102036.88
2023-02-12T14:09:32.484Z,102042.56
2023-02-12T14:12:43.045Z,102044.66
2023-02-12T14:15:51.378Z,102043.00
2023-02-12T14:19:32.793Z,102051.28
2023-02-12T14:22:42.577Z,102046.53
2023-02-12T14:26:04.386Z,102041.34
2023-02-12T14:29:21.192Z,102049.88
2023-02-12T14:32:53.844Z,102045.25
2023-02-12T14:36:20.209Z,102042.88
2023-02-12T14:39:23.287Z,102046.16
2023-02-12T14:42:26.189Z,102048.97
2023-02-12T14:45:35.180Z,102048.47
2023-02-12T14:48:49.923Z,102043.78
2023-02-12T14:52:00.544Z,102045.06
2023-02-12T14:55:07.716Z,102048.59
2023-02-12T14:58:20.119Z,102049.72
2023-02-12T15:01:33.028Z,102052.88
2023-02-12T15:04:38.892Z,102050.44
2023-02-12T15:07:48.778Z,102044.97
2023-02-12T15:11:03.617Z,102048.16
2023-02-12T15:14:23.151Z,102047.59
2023-02-12T15:17:31.096Z,102045.00
2023-02-12T15:20:41.056Z,102045.22
2023-02-12T15:23:45.474Z,102040.94
2023-02-12T15:26:57.839Z,102046.00
2023-02-12T15:30:00.904Z,102049.63
2023-02-12T15:33:09.567Z,102051.59
2023-02-12T15:36:21.344Z,102056.06
2023-02-12T15:39:25.125Z,102055.59
2023-02-12T15:42:30.891Z,102053.94
2023-02-12T15:45:36.679Z,102066.88
2023-02-12T15:48:39.890Z,102067.38
2023-02-12T15:51:43.050Z,102067.84
2023-02-12T15:54:47.923Z,102078.19
2023-02-12T15:57:53.568Z,102082.03
2023-02-12T16:01:02.702Z,102075.69
2023-02-12T16:04:08.264Z,102084.22
2023-02-12T16:07:13.637Z,102093.44
2023-02-12T16:10:19.783Z,102105.66
2023-02-12T16:13:34.951Z,102103.16
2023-02-12T16:16:58.349Z,102109.69
2023-02-12T16:20:21.881Z,102118.38
2023-02-12T16:23:24.803Z,102114.22
2023-02-12T16:26:28.353Z,102115.16
2023-02-12T16:29:34.102Z,102126.53
2023-02-12T16:32:42.759Z,102129.44
2023-02-12T16:35:45.847Z,102131.06
2023-02-12T16:38:52.811Z,102132.00
2023-02-12T16:41:56.935Z,102138.81
2023-02-12T16:44:59.933Z,102143.97
2023-02-12T16:48:05.424Z,102145.91
2023-02-12T16:51:23.190Z,102163.47
2023-02-12T16:54:30.823Z,102168.78
2023-02-12T16:57:33.935Z,102173.44
2023-02-12T17:00:37.043Z,102170.72
2023-02-12T17:03:40.427Z,102177.16
2023-02-12T17:06:44.460Z,102174.66
2023-02-12T17:09:47.825Z,102187.50
2023-02-12T17:12:52.538Z,102187.09
2023-02-12T17:15:57.214Z,102185.25
2023-02-12T17:19:01.039Z,102194.50
2023-02-12T17:22:06.182Z,102200.25
2023-02-12T17:25:12.202Z,102198.47
2023-02-12T17:28:15.829Z,102207.75
2023-02-12T17:31:20.858Z,102214.66
2023-02-12T17:34:24.651Z,102216.03
2023-02-12T17:37:27.750Z,102217.13
2023-02-12T17:40:30.787Z,102213.25
2023-02-12T17:43:33.859Z,102223.09
2023-02-12T17:46:36.584Z,102232.88
2023-02-12T17:49:40.488Z,102229.09
2023-02-12T17:52:44.256Z,102234.03
2023-02-12T17:55:47.188Z,102234.34
2023-02-12T17:58:50.898Z,102237.41
2023-02-12T18:01:53.939Z,102235.47
2023-02-12T18:05:00.139Z,102231.44
2023-02-12T18:08:03.702Z,102224.00
2023-02-12T18:11:10.081Z,102224.66
2023-02-12T18:14:13.219Z,102236.63
2023-02-12T18:17:16.522Z,102229.13
2023-02-12T18:20:19.817Z,102232.97
2023-02-12T18:23:22.752Z,102241.72
2023-02-12T18:26:25.551Z,102244.47
2023-02-12T18:29:29.052Z,102234.19
2023-02-12T18:32:31.809Z,102245.09
2023-02-12T18:35:36.364Z,102237.88
2023-02-12T18:38:40.934Z,102248.78
2023-02-12T18:41:44.045Z,102252.06
2023-02-12T18:44:47.175Z,102248.31
2023-02-12T18:47:50.196Z,102259.69
2023-02-12T18:50:55.370Z,102262.69
2023-02-12T18:54:07.323Z,102256.84
2023-02-12T18:57:10.928Z,102259.47
2023-02-12T19:00:14.565Z,102274.38
2023-02-12T19:03:17.828Z,102275.34
2023-02-12T19:06:21.913Z,102279.50
2023-02-12T19:09:26.401Z,102271.69
2023-02-12T19:12:30.963Z,102274.25
2023-02-12T19:15:34.312Z,102276.88
2023-02-12T19:18:37.716Z,102279.06
2023-02-12T19:21:42.564Z,102278.47
2023-02-12T19:24:47.119Z,102284.59
2023-02-12T19:27:50.094Z,102286.56
2023-02-12T19:30:53.061Z,102291.72
2023-02-12T19:33:59.464Z,102300.91
2023-02-12T19:37:02.484Z,102294.38
2023-02-12T19:40:06.057Z,102302.47
2023-02-12T19:43:09.172Z,102297.59
2023-02-12T19:46:15.332Z,102295.66
2023-02-12T19:49:23.847Z,102300.25
2023-02-12T19:52:27.244Z,102296.16
2023-02-12T19:55:30.355Z,102292.59
2023-02-12T19:58:34.856Z,102296.22
2023-02-12T20:01:38.161Z,102305.97
2023-02-12T20:04:41.076Z,102302.94
2023-02-12T20:07:44.290Z,102297.38
2023-02-12T20:10:47.509Z,102294.97
2023-02-12T20:13:51.019Z,102291.63
2023-02-12T20:16:56.463Z,102300.56
2023-02-12T20:19:59.493Z,102301.69
2023-02-12T20:23:02.749Z,102293.81
2023-02-12T20:26:09.088Z,102297.06
2023-02-12T20:29:12.449Z,102315.91
2023-02-12T20:32:16.525Z,102311.78
2023-02-12T20:35:19.487Z,102311.22
2023-02-12T20:38:22.910Z,102306.38
2023-02-12T20:41:27.550Z,102300.41
2023-02-12T20:44:31.179Z,102317.38
2023-02-12T20:47:34.351Z,102312.75
2023-02-12T20:50:37.268Z,102312.56
2023-02-12T20:53:41.672Z,102316.72
2023-02-12T20:56:44.704Z,102318.84
2023-02-12T20:59:49.876Z,102321.31
2023-02-12T21:02:54.648Z,102318.00
2023-02-12T21:05:57.920Z,102323.63
2023-02-12T21:09:01.458Z,102324.03
2023-02-12T21:12:05.601Z,102328.63
2023-02-12T21:15:08.954Z,102324.28
2023-02-12T21:18:11.997Z,102330.47
2023-02-12T21:21:20.710Z,102336.19
2023-02-12T21:24:25.930Z,102336.63
2023-02-12T21:27:28.974Z,102346.25
2023-02-12T21:30:31.918Z,102346.81
2023-02-12T21:33:35.088Z,102334.63
2023-02-12T21:36:40.766Z,102340.69
2023-02-12T21:39:43.521Z,102343.03
2023-02-12T21:42:46.577Z,102339.97
2023-02-12T21:45:51.126Z,102341.25
2023-02-12T21:48:54.467Z,102341.66
2023-02-12T21:52:03.124Z,102346.78
2023-02-12T21:55:06.125Z,102345.81
2023-02-12T21:58:08.943Z,102357.97
2023-02-12T22:01:19.552Z,102346.47
2023-02-12T22:04:22.468Z,102354.84
2023-02-12T22:07:25.138Z,102353.31
2023-02-12T22:10:28.918Z,102355.00
2023-02-12T22:13:32.112Z,102347.47
2023-02-12T22:16:36.457Z,102352.13
2023-02-12T22:19:39.461Z,102347.94
2023-02-12T22:22:42.313Z,102347.03
2023-02-12T22:25:45.014Z,102360.47
2023-02-12T22:28:53.064Z,102356.75
2023-02-12T22:31:56.069Z,102359.53
2023-02-12T22:34:58.809Z,102357.97
2023-02-12T22:38:02.510Z,102367.31
2023-02-12T22:41:06.265Z,102364.94
2023-02-12T22:44:11.193Z,102368.66
2023-02-12T22:47:13.933Z,102377.09
2023-02-12T22:50:16.878Z,102369.09
2023-02-12T22:53:19.662Z,102379.03
2023-02-12T22:56:23.145Z,102388.72
2023-02-12T22:59:25.811Z,102391.47
2023-02-12T23:02:28.624Z,102401.38
2023-02-12T23:05:31.573Z,102400.97
2023-02-12T23:08:34.989Z,102403.47
2023-02-12T23:11:37.879Z,102398.97
2023-02-12T23:14:40.624Z,102399.13
2023-02-12T23:17:43.421Z,102394.53
2023-02-12T23:20:47.169Z,102398.88
2023-02-12T23:23:50.030Z,102396.56
2023-02-12T23:26:53.886Z,102395.53
2023-02-12T23:29:56.641Z,102390.50
2023-02-12T23:32:59.490Z,102391.75
2023-02-12T23:36:02.276Z,102390.59
2023-02-12T23:39:06.191Z,102386.31
2023-02-12T23:42:09.676Z,102387.69
2023-02-12T23:45:13.075Z,102389.69
2023-02-12T23:48:15.950Z,102379.34
2023-02-12T23:51:18.705Z,102373.94
2023-02-12T23:54:21.451Z,102370.34
2023-02-12T23:57:24.286Z,102379.09
